Time;durP1;ratioP1;P1;durP2;ratioP2;P2;SDS_P1;SDS_P2;PMS_P1;PMS_P2;Temp;Humidity;BMP_temperature;BMP_pressure;BME280_temperature;BME280_humidity;BME280_pressure;Samples;Min_cycle;Max_cycle;Signal;HPM_P1;HPM_P2
2021/09/03 00:00:22;;;;;;;;;;;20.30;65.70;;;;;;493978;240;1071;-68
2021/09/03 00:02:23;;;;;;;;;;;20.20;65.90;;;;;;494203;240;2195;-68
2021/09/03 00:04:25;;;;;;;;;;;20.00;66.30;;;;;;493971;240;1041;-68
2021/09/03 00:06:26;;;;;;;;;;;19.90;66.80;;;;;;493988;240;1632;-68
2021/09/03 00:08:27;;;;;;;;;;;19.80;67.10;;;;;;494059;240;1103;-67
2021/09/03 00:10:29;;;;;;;;;;;19.90;67.10;;;;;;494275;240;1039;-67
2021/09/03 00:12:30;;;;;;;;;;;19.90;67.10;;;;;;494265;240;1198;-68
2021/09/03 00:14:31;;;;;;;;;;;20.10;66.40;;;;;;494021;240;1079;-68
2021/09/03 00:16:32;;;;;;;;;;;20.20;66.00;;;;;;493908;240;1570;-68
2021/09/03 00:18:34;;;;;;;;;;;20.10;66.20;;;;;;493945;240;1080;-68
2021/09/03 00:20:35;;;;;;;;;;;20.00;66.60;;;;;;494404;240;1035;-67
2021/09/03 00:22:36;;;;;;;;;;;19.90;66.80;;;;;;494238;240;2183;-67
2021/09/03 00:24:38;;;;;;;;;;;19.80;67.10;;;;;;494193;240;1261;-67
2021/09/03 00:26:39;;;;;;;;;;;19.80;67.30;;;;;;494172;240;1495;-68
2021/09/03 00:28:40;;;;;;;;;;;19.80;67.40;;;;;;493988;240;1271;-68
2021/09/03 00:30:42;;;;;;;;;;;19.70;67.50;;;;;;494451;240;1133;-68
2021/09/03 00:32:43;;;;;;;;;;;19.80;67.50;;;;;;494022;240;1193;-68
2021/09/03 00:34:44;;;;;;;;;;;19.80;67.40;;;;;;493979;240;1051;-68
2021/09/03 00:36:46;;;;;;;;;;;20.00;66.50;;;;;;493907;240;1039;-68
2021/09/03 00:38:47;;;;;;;;;;;20.20;65.80;;;;;;494167;240;1041;-68
2021/09/03 00:40:48;;;;;;;;;;;20.40;65.20;;;;;;494033;240;1042;-68
2021/09/03 00:42:50;;;;;;;;;;;20.50;64.80;;;;;;493907;237;2190;-68
2021/09/03 00:44:51;;;;;;;;;;;20.70;64.40;;;;;;493979;240;1045;-68
2021/09/03 00:46:52;;;;;;;;;;;20.60;64.30;;;;;;493996;240;1056;-68
2021/09/03 00:48:54;;;;;;;;;;;20.40;64.90;;;;;;494173;240;1078;-68
2021/09/03 00:50:55;;;;;;;;;;;20.30;65.70;;;;;;494490;240;1035;-68
2021/09/03 00:52:56;;;;;;;;;;;20.10;66.10;;;;;;494032;240;945;-68
2021/09/03 00:54:58;;;;;;;;;;;20.00;66.50;;;;;;494329;240;976;-67
2021/09/03 00:56:59;;;;;;;;;;;20.00;66.80;;;;;;494175;240;1121;-67
2021/09/03 00:59:01;;;;;;;;;;;19.90;67.00;;;;;;494065;240;1188;-68
2021/09/03 01:01:02;;;;;;;;;;;19.80;67.20;;;;;;494202;240;1067;-67
2021/09/03 01:03:03;;;;;;;;;;;19.80;67.30;;;;;;494064;240;2160;-67
2021/09/03 01:05:05;;;;;;;;;;;19.80;67.50;;;;;;493975;240;1085;-67
2021/09/03 01:07:06;;;;;;;;;;;19.70;67.60;;;;;;493953;240;1043;-67
2021/09/03 01:09:07;;;;;;;;;;;19.70;67.60;;;;;;494049;240;1068;-67
2021/09/03 01:11:09;;;;;;;;;;;19.70;67.50;;;;;;494353;240;1048;-67
2021/09/03 01:13:10;;;;;;;;;;;19.80;67.20;;;;;;494164;240;1176;-68
2021/09/03 01:15:11;;;;;;;;;;;20.00;66.70;;;;;;494066;240;1128;-67
2021/09/03 01:17:12;;;;;;;;;;;20.00;66.60;;;;;;494033;240;1104;-67
2021/09/03 01:19:14;;;;;;;;;;;19.90;66.80;;;;;;494333;240;1102;-67
2021/09/03 01:21:15;;;;;;;;;;;19.90;67.10;;;;;;494233;240;1166;-67
2021/09/03 01:23:17;;;;;;;;;;;19.80;67.20;;;;;;494082;240;2187;-67
2021/09/03 01:25:19;;;;;;;;;;;19.80;67.40;;;;;;494059;240;1074;-67
2021/09/03 01:27:19;;;;;;;;;;;19.80;67.40;;;;;;493927;241;1285;-67
2021/09/03 01:29:20;;;;;;;;;;;19.90;67.20;;;;;;494048;240;1205;-68
2021/09/03 01:31:22;;;;;;;;;;;19.90;67.00;;;;;;493932;240;1239;-67
2021/09/03 01:33:23;;;;;;;;;;;19.80;67.20;;;;;;494344;240;1076;-68
2021/09/03 01:35:24;;;;;;;;;;;19.70;67.30;;;;;;493949;240;1183;-68
2021/09/03 01:37:26;;;;;;;;;;;19.70;67.40;;;;;;493973;240;1059;-67
2021/09/03 01:39:27;;;;;;;;;;;19.70;67.60;;;;;;494026;240;1043;-67
2021/09/03 01:41:29;;;;;;;;;;;19.70;67.50;;;;;;493909;240;1116;-67
2021/09/03 01:43:30;;;;;;;;;;;19.70;67.50;;;;;;494145;240;2144;-68
2021/09/03 01:45:31;;;;;;;;;;;19.80;67.40;;;;;;494223;240;1023;-68
2021/09/03 01:47:33;;;;;;;;;;;20.00;66.60;;;;;;493958;240;1054;-68
2021/09/03 01:49:34;;;;;;;;;;;20.20;66.00;;;;;;494248;240;1065;-68
2021/09/03 01:51:35;;;;;;;;;;;20.30;65.60;;;;;;493910;240;1061;-68
2021/09/03 01:53:37;;;;;;;;;;;20.10;66.00;;;;;;494060;240;1159;-68
2021/09/03 01:55:38;;;;;;;;;;;20.00;66.40;;;;;;494015;240;1062;-67
2021/09/03 01:57:39;;;;;;;;;;;20.00;66.70;;;;;;494045;240;1095;-67
2021/09/03 01:59:41;;;;;;;;;;;20.10;66.40;;;;;;494178;240;1205;-68
2021/09/03 02:01:42;;;;;;;;;;;20.30;65.80;;;;;;494046;240;1059;-68
2021/09/03 02:03:43;;;;;;;;;;;20.40;65.30;;;;;;494176;240;2152;-68
2021/09/03 02:05:45;;;;;;;;;;;20.50;64.80;;;;;;494263;240;1004;-68
2021/09/03 02:07:46;;;;;;;;;;;20.40;65.10;;;;;;494230;240;1082;-67
2021/09/03 02:09:49;;;;;;;;;;;20.20;65.70;;;;;;494237;240;999;-67
2021/09/03 02:11:51;;;;;;;;;;;20.10;66.10;;;;;;494096;240;1046;-68
2021/09/03 02:13:51;;;;;;;;;;;20.00;66.60;;;;;;494006;240;1396;-68
2021/09/03 02:15:53;;;;;;;;;;;19.90;66.90;;;;;;494151;240;1041;-67
2021/09/03 02:17:54;;;;;;;;;;;19.90;67.00;;;;;;494104;240;932;-67
2021/09/03 02:19:55;;;;;;;;;;;19.80;67.20;;;;;;494240;240;986;-67
2021/09/03 02:21:57;;;;;;;;;;;19.80;67.40;;;;;;494332;240;1058;-67
2021/09/03 02:23:58;;;;;;;;;;;19.70;67.50;;;;;;494318;240;2152;-67
2021/09/03 02:25:59;;;;;;;;;;;19.70;67.50;;;;;;494203;240;1096;-67
2021/09/03 02:28:00;;;;;;;;;;;19.70;67.60;;;;;;494075;240;1030;-67
2021/09/03 02:30:02;;;;;;;;;;;19.70;67.60;;;;;;494061;240;1204;-67
2021/09/03 02:32:03;;;;;;;;;;;19.80;67.30;;;;;;494074;240;1045;-68
2021/09/03 02:34:04;;;;;;;;;;;20.10;66.60;;;;;;494080;240;1175;-68
2021/09/03 02:36:06;;;;;;;;;;;20.20;66.00;;;;;;494057;240;1045;-67
2021/09/03 02:38:07;;;;;;;;;;;20.10;66.10;;;;;;494011;240;1039;-67
2021/09/03 02:40:08;;;;;;;;;;;20.00;66.40;;;;;;494037;240;1042;-67
2021/09/03 02:42:10;;;;;;;;;;;20.00;66.70;;;;;;494287;240;1057;-67
2021/09/03 02:44:11;;;;;;;;;;;19.90;66.80;;;;;;494009;240;2135;-67
2021/09/03 02:46:12;;;;;;;;;;;19.80;67.10;;;;;;493975;240;1262;-67
2021/09/03 02:48:14;;;;;;;;;;;19.80;67.20;;;;;;494025;240;1147;-67
2021/09/03 02:50:15;;;;;;;;;;;19.80;67.30;;;;;;494457;240;1057;-67
2021/09/03 02:52:16;;;;;;;;;;;19.90;67.10;;;;;;493943;240;1038;-67
2021/09/03 02:54:18;;;;;;;;;;;20.00;66.70;;;;;;494189;240;1082;-67
2021/09/03 02:56:19;;;;;;;;;;;20.00;66.50;;;;;;494012;240;1061;-67
2021/09/03 02:58:20;;;;;;;;;;;20.00;66.60;;;;;;494287;240;1207;-67
2021/09/03 03:00:22;;;;;;;;;;;19.90;66.70;;;;;;494032;240;1190;-67
2021/09/03 03:02:23;;;;;;;;;;;19.90;66.90;;;;;;493980;240;1039;-68
2021/09/03 03:04:24;;;;;;;;;;;19.90;66.80;;;;;;494256;240;2186;-68
2021/09/03 03:06:26;;;;;;;;;;;19.80;67.00;;;;;;494316;240;1072;-67
2021/09/03 03:08:27;;;;;;;;;;;19.80;67.10;;;;;;494176;240;1017;-67
2021/09/03 03:10:28;;;;;;;;;;;19.80;67.20;;;;;;494107;240;1038;-67
2021/09/03 03:12:30;;;;;;;;;;;19.90;67.00;;;;;;494172;240;1144;-67
2021/09/03 03:14:33;;;;;;;;;;;19.80;67.10;;;;;;494037;240;1163;-68
2021/09/03 03:16:34;;;;;;;;;;;19.80;67.10;;;;;;494059;240;1070;-67
2021/09/03 03:18:36;;;;;;;;;;;19.90;66.90;;;;;;494153;240;1037;-68
2021/09/03 03:20:37;;;;;;;;;;;19.90;66.90;;;;;;494047;240;1082;-68
2021/09/03 03:22:38;;;;;;;;;;;19.80;67.10;;;;;;494010;240;1216;-67
2021/09/03 03:24:39;;;;;;;;;;;19.80;67.20;;;;;;494072;240;2199;-68
2021/09/03 03:26:41;;;;;;;;;;;19.90;66.90;;;;;;493956;240;1156;-68
2021/09/03 03:28:42;;;;;;;;;;;20.00;66.50;;;;;;494173;240;1107;-67
2021/09/03 03:30:44;;;;;;;;;;;20.00;66.60;;;;;;494094;240;1154;-67
2021/09/03 03:32:45;;;;;;;;;;;19.90;66.80;;;;;;493898;240;1144;-67
2021/09/03 03:34:46;;;;;;;;;;;19.80;66.90;;;;;;494231;240;1042;-67
2021/09/03 03:36:47;;;;;;;;;;;20.00;66.70;;;;;;493861;240;1123;-68
2021/09/03 03:38:49;;;;;;;;;;;20.10;66.10;;;;;;494294;240;1036;-68
2021/09/03 03:40:50;;;;;;;;;;;20.10;66.10;;;;;;493980;239;1116;-67
2021/09/03 03:42:51;;;;;;;;;;;20.00;66.50;;;;;;493909;240;1169;-67
2021/09/03 03:44:53;;;;;;;;;;;19.90;66.90;;;;;;493997;240;2205;-67
2021/09/03 03:46:54;;;;;;;;;;;19.80;67.00;;;;;;494127;240;1301;-68
2021/09/03 03:48:55;;;;;;;;;;;19.80;67.20;;;;;;494023;240;1069;-67
2021/09/03 03:50:57;;;;;;;;;;;19.70;67.30;;;;;;494205;240;1335;-67
2021/09/03 03:52:58;;;;;;;;;;;19.80;67.20;;;;;;493978;240;1071;-67
2021/09/03 03:54:59;;;;;;;;;;;19.80;67.00;;;;;;494510;240;1025;-67
2021/09/03 03:57:01;;;;;;;;;;;19.90;66.90;;;;;;494103;240;1135;-67
2021/09/03 03:59:02;;;;;;;;;;;19.90;66.70;;;;;;494067;240;1027;-67
2021/09/03 04:01:03;;;;;;;;;;;20.10;66.30;;;;;;494013;240;1284;-67
2021/09/03 04:03:06;;;;;;;;;;;20.20;65.70;;;;;;494264;240;1160;-67
2021/09/03 04:05:07;;;;;;;;;;;20.20;65.70;;;;;;494118;240;2183;-67
2021/09/03 04:07:09;;;;;;;;;;;20.00;66.10;;;;;;494116;240;1075;-67
2021/09/03 04:09:10;;;;;;;;;;;20.00;66.50;;;;;;494180;240;1047;-68
2021/09/03 04:11:11;;;;;;;;;;;19.80;66.70;;;;;;493981;240;1108;-67
2021/09/03 04:13:13;;;;;;;;;;;19.80;67.00;;;;;;494071;240;1033;-67
2021/09/03 04:15:14;;;;;;;;;;;19.80;67.10;;;;;;494358;240;1208;-67
2021/09/03 04:17:15;;;;;;;;;;;19.80;67.10;;;;;;494054;240;1133;-67
2021/09/03 04:19:17;;;;;;;;;;;19.90;66.90;;;;;;494060;240;1037;-67
2021/09/03 04:21:18;;;;;;;;;;;19.90;66.70;;;;;;493964;240;1128;-67
2021/09/03 04:23:19;;;;;;;;;;;19.80;66.90;;;;;;493868;240;2178;-67
2021/09/03 04:25:21;;;;;;;;;;;19.80;67.00;;;;;;494167;240;1183;-67
2021/09/03 04:27:22;;;;;;;;;;;19.80;67.00;;;;;;493747;240;1229;-67
2021/09/03 04:29:23;;;;;;;;;;;20.00;66.50;;;;;;493790;240;1071;-68
2021/09/03 04:31:25;;;;;;;;;;;20.20;66.00;;;;;;493867;240;1159;-68
2021/09/03 04:33:26;;;;;;;;;;;20.30;65.40;;;;;;493988;240;1077;-67
2021/09/03 04:35:27;;;;;;;;;;;20.20;65.50;;;;;;493987;240;1028;-67
2021/09/03 04:37:29;;;;;;;;;;;20.10;65.90;;;;;;493861;240;1120;-67
2021/09/03 04:39:30;;;;;;;;;;;19.90;66.40;;;;;;493870;240;1139;-67
2021/09/03 04:41:31;;;;;;;;;;;19.90;66.70;;;;;;493924;240;1040;-67
2021/09/03 04:43:33;;;;;;;;;;;19.80;66.90;;;;;;494049;240;2184;-67
2021/09/03 04:45:34;;;;;;;;;;;19.80;67.20;;;;;;493886;240;1157;-67
2021/09/03 04:47:36;;;;;;;;;;;19.70;67.20;;;;;;493843;240;1119;-68
2021/09/03 04:49:38;;;;;;;;;;;19.80;67.20;;;;;;494010;240;1028;-68
2021/09/03 04:51:40;;;;;;;;;;;19.80;66.90;;;;;;493807;240;1079;-67
2021/09/03 04:53:41;;;;;;;;;;;19.90;66.70;;;;;;493979;240;1049;-67
2021/09/03 04:55:42;;;;;;;;;;;19.90;66.70;;;;;;493814;240;1470;-68
2021/09/03 04:57:44;;;;;;;;;;;19.80;66.80;;;;;;493773;240;1117;-68
2021/09/03 04:59:45;;;;;;;;;;;19.80;67.00;;;;;;493812;240;1058;-67
2021/09/03 05:01:46;;;;;;;;;;;19.70;67.10;;;;;;493873;240;1281;-67
2021/09/03 05:03:48;;;;;;;;;;;19.80;67.20;;;;;;494006;240;2132;-67
2021/09/03 05:05:49;;;;;;;;;;;19.80;66.90;;;;;;493975;240;1107;-67
2021/09/03 05:07:51;;;;;;;;;;;19.80;67.00;;;;;;493708;240;1215;-67
2021/09/03 05:09:52;;;;;;;;;;;19.70;67.10;;;;;;493851;240;1073;-67
2021/09/03 05:11:54;;;;;;;;;;;19.80;67.10;;;;;;493899;240;1224;-67
2021/09/03 05:13:55;;;;;;;;;;;19.90;66.90;;;;;;493869;240;1067;-67
2021/09/03 05:15:56;;;;;;;;;;;19.90;66.40;;;;;;493969;240;1149;-67
2021/09/03 05:17:58;;;;;;;;;;;19.90;66.60;;;;;;493667;240;1306;-67
2021/09/03 05:19:59;;;;;;;;;;;19.80;66.80;;;;;;493837;240;1090;-67
2021/09/03 05:22:00;;;;;;;;;;;19.80;67.00;;;;;;493667;240;1098;-67
2021/09/03 05:24:02;;;;;;;;;;;19.70;67.20;;;;;;493722;240;2198;-67
2021/09/03 05:26:03;;;;;;;;;;;19.80;67.10;;;;;;493713;240;1110;-68
2021/09/03 05:28:04;;;;;;;;;;;20.00;66.30;;;;;;493896;240;1120;-68
2021/09/03 05:30:07;;;;;;;;;;;20.20;65.60;;;;;;493784;240;1066;-68
2021/09/03 05:32:07;;;;;;;;;;;20.40;65.10;;;;;;493649;241;1346;-68
2021/09/03 05:34:09;;;;;;;;;;;20.60;64.50;;;;;;493881;240;1043;-68
2021/09/03 05:36:10;;;;;;;;;;;20.50;64.40;;;;;;493876;240;1163;-67
2021/09/03 05:38:11;;;;;;;;;;;20.30;64.90;;;;;;493796;240;1079;-67
2021/09/03 05:40:12;;;;;;;;;;;20.20;65.60;;;;;;493764;240;1095;-67
2021/09/03 05:42:14;;;;;;;;;;;20.10;66.00;;;;;;494032;240;1122;-67
2021/09/03 05:44:16;;;;;;;;;;;20.00;66.40;;;;;;493844;240;2181;-67
2021/09/03 05:46:17;;;;;;;;;;;19.90;66.70;;;;;;493777;237;1282;-67
2021/09/03 05:48:18;;;;;;;;;;;19.80;66.80;;;;;;493791;240;1080;-67
2021/09/03 05:50:20;;;;;;;;;;;19.80;66.90;;;;;;493718;240;1140;-67
2021/09/03 05:52:21;;;;;;;;;;;19.80;66.70;;;;;;493625;240;1130;-67
2021/09/03 05:54:22;;;;;;;;;;;20.00;66.60;;;;;;493695;240;1124;-68
2021/09/03 05:56:24;;;;;;;;;;;20.00;66.40;;;;;;493613;240;1246;-67
2021/09/03 05:58:25;;;;;;;;;;;19.90;66.50;;;;;;493652;240;1206;-67
2021/09/03 06:00:26;;;;;;;;;;;19.80;66.70;;;;;;493687;240;1070;-67
2021/09/03 06:02:28;;;;;;;;;;;19.80;66.90;;;;;;493419;240;1181;-67
2021/09/03 06:04:29;;;;;;;;;;;19.80;67.20;;;;;;493302;240;2195;-67
2021/09/03 06:06:30;;;;;;;;;;;19.70;67.20;;;;;;493254;240;1144;-67
2021/09/03 06:08:32;;;;;;;;;;;19.70;67.20;;;;;;493293;240;1075;-67
2021/09/03 06:10:33;;;;;;;;;;;19.80;66.90;;;;;;493266;240;1105;-68
2021/09/03 06:12:35;;;;;;;;;;;20.00;66.20;;;;;;493382;240;1069;-68
2021/09/03 06:14:36;;;;;;;;;;;20.20;65.60;;;;;;493324;240;1176;-68
2021/09/03 06:16:37;;;;;;;;;;;20.20;65.70;;;;;;493272;240;1182;-68
2021/09/03 06:18:39;;;;;;;;;;;20.10;65.90;;;;;;493312;240;1068;-67
2021/09/03 06:20:40;;;;;;;;;;;20.00;66.20;;;;;;493303;240;1225;-67
2021/09/03 06:22:42;;;;;;;;;;;19.90;66.50;;;;;;493277;240;1096;-67
2021/09/03 06:24:43;;;;;;;;;;;19.80;66.70;;;;;;493226;240;2179;-67
2021/09/03 06:26:44;;;;;;;;;;;19.80;66.90;;;;;;493285;240;1197;-67
2021/09/03 06:28:46;;;;;;;;;;;19.80;66.90;;;;;;493199;240;1135;-67
2021/09/03 06:30:47;;;;;;;;;;;19.80;67.00;;;;;;493230;240;1181;-68
2021/09/03 06:32:48;;;;;;;;;;;19.90;66.80;;;;;;493270;240;1167;-67
2021/09/03 06:34:50;;;;;;;;;;;19.80;66.80;;;;;;493306;240;1055;-67
2021/09/03 06:36:51;;;;;;;;;;;19.80;66.90;;;;;;493375;240;1206;-67
2021/09/03 06:38:52;;;;;;;;;;;19.80;67.00;;;;;;493264;240;1188;-68
2021/09/03 06:40:54;;;;;;;;;;;19.90;66.80;;;;;;493343;240;1126;-68
2021/09/03 06:42:55;;;;;;;;;;;19.80;66.80;;;;;;493190;240;1156;-67
2021/09/03 06:44:59;;;;;;;;;;;19.80;66.90;;;;;;493213;240;2139;-67
2021/09/03 06:46:58;;;;;;;;;;;19.80;67.10;;;;;;492765;241;1984;-68
2021/09/03 06:48:59;;;;;;;;;;;19.80;67.20;;;;;;493146;240;1074;-68
2021/09/03 06:51:00;;;;;;;;;;;19.80;67.00;;;;;;493204;240;1126;-67
2021/09/03 06:53:02;;;;;;;;;;;20.00;66.20;;;;;;493372;240;1238;-68
2021/09/03 06:55:03;;;;;;;;;;;20.20;65.60;;;;;;493283;240;1125;-68
2021/09/03 06:57:05;;;;;;;;;;;20.40;64.90;;;;;;493491;240;1339;-68
2021/09/03 06:59:06;;;;;;;;;;;20.50;64.60;;;;;;494151;240;848;-68
2021/09/03 07:01:07;;;;;;;;;;;20.70;64.00;;;;;;493611;240;1158;-68
2021/09/03 07:03:09;;;;;;;;;;;20.60;64.10;;;;;;493592;240;1114;-68
2021/09/03 07:05:11;;;;;;;;;;;20.40;64.60;;;;;;494021;240;2179;-67
2021/09/03 07:07:11;;;;;;;;;;;20.30;65.30;;;;;;493288;241;2125;-68
2021/09/03 07:09:13;;;;;;;;;;;20.20;65.70;;;;;;493109;240;1075;-67
2021/09/03 07:11:15;;;;;;;;;;;20.00;66.10;;;;;;493185;240;1275;-68
2021/09/03 07:13:16;;;;;;;;;;;19.90;66.40;;;;;;493450;240;1363;-68
2021/09/03 07:15:16;;;;;;;;;;;19.90;66.70;;;;;;493763;240;1278;-68
2021/09/03 07:17:18;;;;;;;;;;;19.80;66.80;;;;;;493482;240;1174;-67
2021/09/03 07:19:19;;;;;;;;;;;19.80;66.90;;;;;;493457;240;838;-67
2021/09/03 07:21:21;;;;;;;;;;;19.90;66.90;;;;;;493795;240;1137;-68
2021/09/03 07:23:22;;;;;;;;;;;20.10;66.20;;;;;;493874;240;801;-68
2021/09/03 07:25:23;;;;;;;;;;;20.10;65.70;;;;;;493388;240;2187;-68
2021/09/03 07:27:25;;;;;;;;;;;20.10;65.80;;;;;;493944;240;1197;-68
2021/09/03 07:29:26;;;;;;;;;;;20.00;66.20;;;;;;493477;240;1231;-67
2021/09/03 07:31:27;;;;;;;;;;;19.90;66.50;;;;;;493951;240;898;-68
2021/09/03 07:33:29;;;;;;;;;;;19.90;66.80;;;;;;493623;240;1083;-67
2021/09/03 07:35:30;;;;;;;;;;;19.80;66.90;;;;;;493398;240;860;-67
2021/09/03 07:37:31;;;;;;;;;;;19.80;67.00;;;;;;493169;240;832;-67
2021/09/03 07:39:33;;;;;;;;;;;19.80;67.10;;;;;;493292;240;830;-68
2021/09/03 07:41:34;;;;;;;;;;;19.80;67.10;;;;;;493876;240;838;-67
2021/09/03 07:43:35;;;;;;;;;;;19.90;66.70;;;;;;493898;240;827;-67
2021/09/03 07:45:36;;;;;;;;;;;19.80;66.70;;;;;;493883;240;2195;-67
2021/09/03 07:47:38;;;;;;;;;;;19.80;66.90;;;;;;493834;240;1091;-68
2021/09/03 07:49:39;;;;;;;;;;;19.80;67.00;;;;;;493471;240;864;-68
2021/09/03 07:51:40;;;;;;;;;;;19.70;67.10;;;;;;493319;240;1665;-67
2021/09/03 07:53:42;;;;;;;;;;;19.70;67.20;;;;;;493145;240;1094;-67
2021/09/03 07:55:43;;;;;;;;;;;19.70;67.20;;;;;;493253;240;1588;-68
2021/09/03 07:57:44;;;;;;;;;;;20.00;66.50;;;;;;493881;240;1141;-67
2021/09/03 07:59:46;;;;;;;;;;;20.20;65.90;;;;;;493414;240;854;-68
2021/09/03 08:01:47;;;;;;;;;;;20.20;65.70;;;;;;493356;240;1197;-68
2021/09/03 08:03:48;;;;;;;;;;;20.00;66.00;;;;;;493345;240;1377;-67
2021/09/03 08:05:50;;;;;;;;;;;20.00;66.30;;;;;;493852;240;2191;-67
2021/09/03 08:07:51;;;;;;;;;;;19.90;66.60;;;;;;493755;240;1059;-68
2021/09/03 08:09:52;;;;;;;;;;;19.80;66.70;;;;;;493655;240;968;-68
2021/09/03 08:11:54;;;;;;;;;;;19.80;67.00;;;;;;493576;240;1174;-68
2021/09/03 08:13:55;;;;;;;;;;;19.80;67.00;;;;;;493717;240;970;-68
2021/09/03 08:15:56;;;;;;;;;;;20.00;66.50;;;;;;493813;240;1055;-68
2021/09/03 08:17:57;;;;;;;;;;;20.10;65.80;;;;;;493381;240;1061;-68
2021/09/03 08:19:59;;;;;;;;;;;20.20;65.70;;;;;;493926;240;896;-68
2021/09/03 08:22:00;;;;;;;;;;;20.00;65.90;;;;;;493772;240;1065;-68
2021/09/03 08:24:01;;;;;;;;;;;20.00;66.10;;;;;;493376;240;887;-68
2021/09/03 08:26:03;;;;;;;;;;;20.00;66.40;;;;;;493818;240;2183;-68
2021/09/03 08:28:04;;;;;;;;;;;19.80;66.60;;;;;;493392;240;1094;-67
2021/09/03 08:30:07;;;;;;;;;;;19.80;66.90;;;;;;493913;240;902;-67
2021/09/03 08:32:08;;;;;;;;;;;19.80;67.00;;;;;;493371;240;894;-67
2021/09/03 08:34:10;;;;;;;;;;;19.80;67.20;;;;;;493371;240;1124;-67
2021/09/03 08:36:11;;;;;;;;;;;19.70;67.20;;;;;;493764;240;1122;-68
2021/09/03 08:38:12;;;;;;;;;;;19.90;66.80;;;;;;493397;240;834;-68
2021/09/03 08:40:13;;;;;;;;;;;19.90;66.60;;;;;;493364;241;953;-68
2021/09/03 08:42:15;;;;;;;;;;;19.90;66.70;;;;;;493752;240;1057;-68
2021/09/03 08:44:16;;;;;;;;;;;20.00;66.30;;;;;;493216;240;866;-68
2021/09/03 08:46:17;;;;;;;;;;;20.20;65.60;;;;;;493148;240;2187;-68
2021/09/03 08:48:19;;;;;;;;;;;20.40;65.10;;;;;;492867;240;1104;-68
2021/09/03 08:50:21;;;;;;;;;;;20.50;64.60;;;;;;493053;240;950;-68
2021/09/03 08:52:22;;;;;;;;;;;20.60;64.20;;;;;;493184;240;1035;-68
2021/09/03 08:54:24;;;;;;;;;;;20.50;64.50;;;;;;493735;240;812;-68
2021/09/03 08:56:24;;;;;;;;;;;20.30;65.20;;;;;;493013;240;1379;-68
2021/09/03 08:58:26;;;;;;;;;;;20.20;65.70;;;;;;493378;240;845;-67
2021/09/03 09:00:27;;;;;;;;;;;20.00;66.00;;;;;;493820;240;1222;-68
2021/09/03 09:02:28;;;;;;;;;;;19.90;66.40;;;;;;493782;240;1047;-67
2021/09/03 09:04:30;;;;;;;;;;;19.90;66.70;;;;;;493551;240;1151;-67
2021/09/03 09:06:31;;;;;;;;;;;19.80;66.70;;;;;;493809;240;2183;-68
2021/09/03 09:08:32;;;;;;;;;;;19.80;66.90;;;;;;493354;240;1139;-67
2021/09/03 09:10:34;;;;;;;;;;;19.80;67.00;;;;;;493300;240;1357;-67
2021/09/03 09:12:35;;;;;;;;;;;19.80;67.00;;;;;;493804;240;1176;-68
2021/09/03 09:14:36;;;;;;;;;;;19.80;67.00;;;;;;493352;240;1246;-68
2021/09/03 09:16:38;;;;;;;;;;;19.80;66.90;;;;;;493507;240;1179;-67
2021/09/03 09:18:39;;;;;;;;;;;19.80;67.00;;;;;;493744;240;1439;-67
2021/09/03 09:20:40;;;;;;;;;;;19.80;66.90;;;;;;493396;240;925;-67
2021/09/03 09:22:42;;;;;;;;;;;20.00;66.50;;;;;;493810;240;1059;-68
2021/09/03 09:24:43;;;;;;;;;;;20.20;65.70;;;;;;493841;240;904;-68
2021/09/03 09:26:44;;;;;;;;;;;20.40;65.10;;;;;;493740;240;2183;-68
2021/09/03 09:28:46;;;;;;;;;;;20.50;64.70;;;;;;493718;240;837;-68
2021/09/03 09:30:47;;;;;;;;;;;20.60;64.00;;;;;;493237;240;838;-68
2021/09/03 09:32:48;;;;;;;;;;;20.50;64.30;;;;;;493610;240;1005;-67
2021/09/03 09:34:49;;;;;;;;;;;20.40;65.00;;;;;;493242;240;1113;-67
2021/09/03 09:36:51;;;;;;;;;;;20.20;65.40;;;;;;493870;240;1149;-67
2021/09/03 09:38:52;;;;;;;;;;;20.10;65.90;;;;;;493822;240;1232;-67
2021/09/03 09:40:53;;;;;;;;;;;20.00;66.30;;;;;;493073;240;1145;-68
2021/09/03 09:42:55;;;;;;;;;;;19.90;66.60;;;;;;493112;240;1371;-67
2021/09/03 09:44:56;;;;;;;;;;;19.80;66.80;;;;;;493088;240;1071;-68
2021/09/03 09:46:57;;;;;;;;;;;19.80;67.00;;;;;;493044;240;2188;-68
2021/09/03 09:49:01;;;;;;;;;;;19.80;67.00;;;;;;493129;240;1183;-68
2021/09/03 09:51:00;;;;;;;;;;;19.80;67.20;;;;;;493023;241;1428;-68
2021/09/03 09:53:01;;;;;;;;;;;19.70;67.10;;;;;;493117;240;1152;-68
2021/09/03 09:55:05;;;;;;;;;;;19.80;66.90;;;;;;493283;240;1089;-68
2021/09/03 09:57:06;;;;;;;;;;;20.00;66.40;;;;;;493182;240;1205;-68
2021/09/03 09:59:07;;;;;;;;;;;20.20;65.60;;;;;;493126;240;1202;-68
2021/09/03 10:01:08;;;;;;;;;;;20.40;64.90;;;;;;493039;240;1087;-68
2021/09/03 10:03:10;;;;;;;;;;;20.60;64.40;;;;;;493049;240;1124;-68
2021/09/03 10:05:11;;;;;;;;;;;20.70;63.90;;;;;;492993;240;1170;-68
2021/09/03 10:07:13;;;;;;;;;;;20.70;63.70;;;;;;493074;240;2179;-68
2021/09/03 10:09:14;;;;;;;;;;;20.50;64.30;;;;;;493297;240;1147;-68
2021/09/03 10:11:15;;;;;;;;;;;20.40;65.00;;;;;;493303;240;1107;-67
2021/09/03 10:13:17;;;;;;;;;;;20.20;65.40;;;;;;493337;240;1221;-67
2021/09/03 10:15:18;;;;;;;;;;;20.10;65.90;;;;;;493244;240;1110;-67
2021/09/03 10:17:19;;;;;;;;;;;20.00;66.20;;;;;;493286;240;1590;-67
2021/09/03 10:19:20;;;;;;;;;;;19.90;66.40;;;;;;493271;240;1177;-67
2021/09/03 10:21:22;;;;;;;;;;;19.90;66.60;;;;;;493284;240;1132;-67
2021/09/03 10:23:23;;;;;;;;;;;19.90;66.60;;;;;;493029;240;1230;-67
2021/09/03 10:25:24;;;;;;;;;;;19.80;66.80;;;;;;492535;240;2186;-67
2021/09/03 10:27:26;;;;;;;;;;;19.80;67.00;;;;;;493243;240;1387;-67
2021/09/03 10:29:27;;;;;;;;;;;19.80;67.00;;;;;;493369;240;1122;-67
2021/09/03 10:31:28;;;;;;;;;;;20.00;66.70;;;;;;493209;240;1106;-67
2021/09/03 10:33:30;;;;;;;;;;;20.00;66.00;;;;;;493185;240;1092;-67
2021/09/03 10:35:31;;;;;;;;;;;20.00;66.10;;;;;;493178;240;1198;-67
2021/09/03 10:37:33;;;;;;;;;;;19.90;66.30;;;;;;493075;241;1192;-67
2021/09/03 10:39:34;;;;;;;;;;;19.90;66.70;;;;;;493040;240;1075;-67
2021/09/03 10:41:35;;;;;;;;;;;19.90;66.80;;;;;;493148;240;1169;-67
2021/09/03 10:43:37;;;;;;;;;;;19.80;66.90;;;;;;492653;240;1072;-67
2021/09/03 10:45:39;;;;;;;;;;;19.90;66.70;;;;;;492703;240;2194;-67
2021/09/03 10:47:40;;;;;;;;;;;20.10;66.10;;;;;;493693;240;1243;-67
2021/09/03 10:49:42;;;;;;;;;;;20.10;65.70;;;;;;493245;240;1083;-67
2021/09/03 10:51:43;;;;;;;;;;;20.00;66.00;;;;;;493218;240;1119;-67
2021/09/03 10:53:46;;;;;;;;;;;20.00;66.20;;;;;;493506;240;771;-67
2021/09/03 10:55:46;;;;;;;;;;;19.90;66.60;;;;;;492927;241;1434;-67
2021/09/03 10:57:47;;;;;;;;;;;19.80;66.70;;;;;;493083;240;753;-67
2021/09/03 10:59:48;;;;;;;;;;;19.80;66.80;;;;;;493598;240;884;-67
2021/09/03 11:01:50;;;;;;;;;;;19.80;67.00;;;;;;493532;240;777;-67
2021/09/03 11:03:52;;;;;;;;;;;19.80;67.00;;;;;;493120;240;832;-67
2021/09/03 11:05:53;;;;;;;;;;;20.00;66.50;;;;;;493310;240;2215;-67
2021/09/03 11:07:54;;;;;;;;;;;20.10;65.90;;;;;;493070;240;1172;-67
2021/09/03 11:09:58;;;;;;;;;;;20.00;66.00;;;;;;493576;240;796;-67
2021/09/03 11:11:57;;;;;;;;;;;20.00;66.30;;;;;;492397;241;1289;-67
2021/09/03 11:13:58;;;;;;;;;;;19.90;66.60;;;;;;492888;240;787;-67
2021/09/03 11:16:00;;;;;;;;;;;19.80;66.80;;;;;;493218;240;921;-67
2021/09/03 11:18:01;;;;;;;;;;;19.80;67.00;;;;;;493722;240;780;-67
2021/09/03 11:20:03;;;;;;;;;;;19.80;67.00;;;;;;493287;240;1153;-67
2021/09/03 11:22:04;;;;;;;;;;;19.80;67.00;;;;;;493250;240;898;-67
2021/09/03 11:24:05;;;;;;;;;;;19.90;66.80;;;;;;493766;240;809;-67
2021/09/03 11:26:07;;;;;;;;;;;19.90;66.50;;;;;;493728;240;2194;-67
2021/09/03 11:28:08;;;;;;;;;;;20.00;66.40;;;;;;493208;240;923;-67
2021/09/03 11:30:09;;;;;;;;;;;20.10;66.00;;;;;;493291;240;855;-67
2021/09/03 11:32:11;;;;;;;;;;;20.00;66.10;;;;;;493224;240;1045;-67
2021/09/03 11:34:12;;;;;;;;;;;19.90;66.50;;;;;;493186;240;743;-67
2021/09/03 11:36:13;;;;;;;;;;;19.80;66.70;;;;;;493179;240;1166;-67
2021/09/03 11:38:15;;;;;;;;;;;19.80;67.00;;;;;;493446;240;1054;-67
2021/09/03 11:40:16;;;;;;;;;;;19.80;67.00;;;;;;493112;240;750;-67
2021/09/03 11:42:17;;;;;;;;;;;19.80;66.90;;;;;;493563;240;1034;-67
2021/09/03 11:44:19;;;;;;;;;;;20.00;66.40;;;;;;493769;240;646;-67
2021/09/03 11:46:20;;;;;;;;;;;19.90;66.40;;;;;;493195;240;2206;-67
2021/09/03 11:48:21;;;;;;;;;;;19.90;66.50;;;;;;493644;240;1139;-67
2021/09/03 11:50:23;;;;;;;;;;;20.00;66.40;;;;;;493335;240;1103;-67
2021/09/03 11:52:24;;;;;;;;;;;20.20;65.90;;;;;;493632;240;1022;-67
2021/09/03 11:54:25;;;;;;;;;;;20.20;65.50;;;;;;493150;240;797;-67
2021/09/03 11:56:27;;;;;;;;;;;20.10;65.80;;;;;;492984;240;1461;-67